sensor_id;sensor_type;location;lat;lon;timestamp;P1;durP1;ratioP1;P2;durP2;ratioP2
11797;SDS011;5956;51.428;6.682;2024-01-06T00:00:13;13.10;;;11.80;;
11797;SDS011;5956;51.428;6.682;2024-01-06T00:02:43;13.10;;;11.80;;
11797;SDS011;5956;51.428;6.682;2024-01-06T00:05:10;12.93;;;11.67;;
11797;SDS011;5956;51.428;6.682;2024-01-06T00:07:37;13.50;;;12.30;;
11797;SDS011;5956;51.428;6.682;2024-01-06T00:10:04;13.70;;;12.27;;
11797;SDS011;5956;51.428;6.682;2024-01-06T00:12:31;12.27;;;11.20;;
11797;SDS011;5956;51.428;6.682;2024-01-06T00:14:58;13.63;;;12.17;;
11797;SDS011;5956;51.428;6.682;2024-01-06T00:17:25;12.27;;;11.07;;
11797;SDS011;5956;51.428;6.682;2024-01-06T00:19:54;13.13;;;11.93;;
11797;SDS011;5956;51.428;6.682;2024-01-06T00:22:21;12.70;;;11.53;;
11797;SDS011;5956;51.428;6.682;2024-01-06T00:24:48;12.80;;;11.53;;
11797;SDS011;5956;51.428;6.682;2024-01-06T00:27:16;11.30;;;10.20;;
11797;SDS011;5956;51.428;6.682;2024-01-06T00:29:43;12.50;;;11.40;;
11797;SDS011;5956;51.428;6.682;2024-01-06T00:32:10;11.47;;;10.17;;
11797;SDS011;5956;51.428;6.682;2024-01-06T00:34:37;11.60;;;10.50;;
11797;SDS011;5956;51.428;6.682;2024-01-06T00:37:05;13.10;;;11.83;;
11797;SDS011;5956;51.428;6.682;2024-01-06T00:39:32;11.57;;;10.47;;
11797;SDS011;5956;51.428;6.682;2024-01-06T00:41:59;13.53;;;12.30;;
11797;SDS011;5956;51.428;6.682;2024-01-06T00:44:26;14.07;;;12.67;;
11797;SDS011;5956;51.428;6.682;2024-01-06T00:46:54;13.80;;;12.50;;
11797;SDS011;5956;51.428;6.682;2024-01-06T00:49:21;13.67;;;12.30;;
11797;SDS011;5956;51.428;6.682;2024-01-06T00:51:47;13.33;;;12.03;;
11797;SDS011;5956;51.428;6.682;2024-01-06T00:54:15;14.10;;;12.70;;
11797;SDS011;5956;51.428;6.682;2024-01-06T00:56:42;14.70;;;13.30;;
11797;SDS011;5956;51.428;6.682;2024-01-06T00:59:09;14.17;;;12.80;;
11797;SDS011;5956;51.428;6.682;2024-01-06T01:01:35;15.50;;;13.93;;
11797;SDS011;5956;51.428;6.682;2024-01-06T01:04:02;15.47;;;13.90;;
11797;SDS011;5956;51.428;6.682;2024-01-06T01:06:29;15.83;;;14.23;;
11797;SDS011;5956;51.428;6.682;2024-01-06T01:08:57;16.33;;;14.73;;
11797;SDS011;5956;51.428;6.682;2024-01-06T01:11:25;15.87;;;14.27;;
11797;SDS011;5956;51.428;6.682;2024-01-06T01:13:51;17.30;;;15.60;;
11797;SDS011;5956;51.428;6.682;2024-01-06T01:16:18;16.67;;;14.97;;
11797;SDS011;5956;51.428;6.682;2024-01-06T01:18:44;16.40;;;14.70;;
11797;SDS011;5956;51.428;6.682;2024-01-06T01:21:11;17.77;;;16.07;;
11797;SDS011;5956;51.428;6.682;2024-01-06T01:23:37;16.87;;;15.17;;
11797;SDS011;5956;51.428;6.682;2024-01-06T01:26:04;17.40;;;15.67;;
11797;SDS011;5956;51.428;6.682;2024-01-06T01:28:32;18.10;;;16.20;;
11797;SDS011;5956;51.428;6.682;2024-01-06T01:30:58;18.50;;;16.60;;
11797;SDS011;5956;51.428;6.682;2024-01-06T01:33:25;18.50;;;16.70;;
11797;SDS011;5956;51.428;6.682;2024-01-06T01:35:51;18.83;;;16.93;;
11797;SDS011;5956;51.428;6.682;2024-01-06T01:38:18;19.60;;;16.07;;
11797;SDS011;5956;51.428;6.682;2024-01-06T01:40:44;21.00;;;18.87;;
11797;SDS011;5956;51.428;6.682;2024-01-06T01:43:17;19.47;;;17.57;;
11797;SDS011;5956;51.428;6.682;2024-01-06T01:45:48;18.40;;;16.60;;
11797;SDS011;5956;51.428;6.682;2024-01-06T01:48:17;19.13;;;17.23;;
11797;SDS011;5956;51.428;6.682;2024-01-06T01:50:43;19.83;;;17.57;;
11797;SDS011;5956;51.428;6.682;2024-01-06T01:53:10;18.13;;;16.33;;
11797;SDS011;5956;51.428;6.682;2024-01-06T01:55:37;19.63;;;17.63;;
11797;SDS011;5956;51.428;6.682;2024-01-06T01:58:03;18.40;;;16.50;;
11797;SDS011;5956;51.428;6.682;2024-01-06T02:00:31;18.50;;;16.70;;
11797;SDS011;5956;51.428;6.682;2024-01-06T02:02:59;18.27;;;16.57;;
11797;SDS011;5956;51.428;6.682;2024-01-06T02:05:25;19.10;;;17.13;;
11797;SDS011;5956;51.428;6.682;2024-01-06T02:07:52;19.43;;;17.50;;
11797;SDS011;5956;51.428;6.682;2024-01-06T02:10:19;19.57;;;17.43;;
11797;SDS011;5956;51.428;6.682;2024-01-06T02:12:45;21.03;;;18.30;;
11797;SDS011;5956;51.428;6.682;2024-01-06T02:15:12;19.73;;;17.60;;
11797;SDS011;5956;51.428;6.682;2024-01-06T02:17:38;18.20;;;16.27;;
11797;SDS011;5956;51.428;6.682;2024-01-06T02:20:07;19.63;;;17.60;;
11797;SDS011;5956;51.428;6.682;2024-01-06T02:22:36;18.93;;;17.00;;
11797;SDS011;5956;51.428;6.682;2024-01-06T02:25:04;18.50;;;16.70;;
11797;SDS011;5956;51.428;6.682;2024-01-06T02:27:32;19.70;;;17.60;;
11797;SDS011;5956;51.428;6.682;2024-01-06T02:29:59;19.63;;;17.63;;
11797;SDS011;5956;51.428;6.682;2024-01-06T02:32:26;19.40;;;17.33;;
11797;SDS011;5956;51.428;6.682;2024-01-06T02:34:52;19.60;;;17.37;;
11797;SDS011;5956;51.428;6.682;2024-01-06T02:37:19;19.93;;;17.50;;
11797;SDS011;5956;51.428;6.682;2024-01-06T02:39:47;19.90;;;17.90;;
11797;SDS011;5956;51.428;6.682;2024-01-06T02:42:13;18.60;;;16.73;;
11797;SDS011;5956;51.428;6.682;2024-01-06T02:44:40;19.70;;;17.60;;
11797;SDS011;5956;51.428;6.682;2024-01-06T02:47:06;20.23;;;18.17;;
11797;SDS011;5956;51.428;6.682;2024-01-06T02:49:33;18.80;;;16.80;;
11797;SDS011;5956;51.428;6.682;2024-01-06T02:51:59;20.17;;;17.63;;
11797;SDS011;5956;51.428;6.682;2024-01-06T02:54:26;16.70;;;14.90;;
11797;SDS011;5956;51.428;6.682;2024-01-06T02:56:54;17.63;;;14.03;;
11797;SDS011;5956;51.428;6.682;2024-01-06T02:59:20;15.43;;;13.83;;
11797;SDS011;5956;51.428;6.682;2024-01-06T03:01:46;14.47;;;12.80;;
11797;SDS011;5956;51.428;6.682;2024-01-06T03:04:13;14.73;;;13.00;;
11797;SDS011;5956;51.428;6.682;2024-01-06T03:06:39;11.33;;;9.73;;
11797;SDS011;5956;51.428;6.682;2024-01-06T03:09:06;11.13;;;9.93;;
11797;SDS011;5956;51.428;6.682;2024-01-06T03:11:33;10.27;;;9.27;;
11797;SDS011;5956;51.428;6.682;2024-01-06T03:14:01;9.77;;;8.50;;
11797;SDS011;5956;51.428;6.682;2024-01-06T03:16:28;8.77;;;7.93;;
11797;SDS011;5956;51.428;6.682;2024-01-06T03:18:54;8.17;;;7.47;;
11797;SDS011;5956;51.428;6.682;2024-01-06T03:21:21;8.50;;;7.60;;
11797;SDS011;5956;51.428;6.682;2024-01-06T03:23:47;8.97;;;8.07;;
11797;SDS011;5956;51.428;6.682;2024-01-06T03:26:14;9.20;;;8.27;;
11797;SDS011;5956;51.428;6.682;2024-01-06T03:28:41;8.23;;;7.13;;
11797;SDS011;5956;51.428;6.682;2024-01-06T03:31:09;7.83;;;7.03;;
11797;SDS011;5956;51.428;6.682;2024-01-06T03:33:35;8.47;;;7.53;;
11797;SDS011;5956;51.428;6.682;2024-01-06T03:36:04;8.83;;;7.93;;
11797;SDS011;5956;51.428;6.682;2024-01-06T03:38:30;9.73;;;8.73;;
11797;SDS011;5956;51.428;6.682;2024-01-06T03:40:57;10.33;;;9.03;;
11797;SDS011;5956;51.428;6.682;2024-01-06T03:43:24;10.27;;;9.17;;
11797;SDS011;5956;51.428;6.682;2024-01-06T03:45:51;11.00;;;9.30;;
11797;SDS011;5956;51.428;6.682;2024-01-06T03:48:19;10.87;;;9.73;;
11797;SDS011;5956;51.428;6.682;2024-01-06T03:50:46;10.67;;;9.57;;
11797;SDS011;5956;51.428;6.682;2024-01-06T03:53:12;11.13;;;9.80;;
11797;SDS011;5956;51.428;6.682;2024-01-06T03:55:39;12.73;;;10.10;;
11797;SDS011;5956;51.428;6.682;2024-01-06T03:58:06;11.17;;;9.80;;
11797;SDS011;5956;51.428;6.682;2024-01-06T04:00:33;10.37;;;9.30;;
11797;SDS011;5956;51.428;6.682;2024-01-06T04:02:59;11.43;;;10.33;;
11797;SDS011;5956;51.428;6.682;2024-01-06T04:05:27;11.13;;;9.73;;
11797;SDS011;5956;51.428;6.682;2024-01-06T04:07:53;12.07;;;10.33;;
11797;SDS011;5956;51.428;6.682;2024-01-06T04:10:20;11.70;;;9.70;;
11797;SDS011;5956;51.428;6.682;2024-01-06T04:12:47;10.93;;;9.73;;
11797;SDS011;5956;51.428;6.682;2024-01-06T04:15:16;11.47;;;10.27;;
11797;SDS011;5956;51.428;6.682;2024-01-06T04:17:42;12.60;;;10.73;;
11797;SDS011;5956;51.428;6.682;2024-01-06T04:20:09;13.50;;;10.23;;
11797;SDS011;5956;51.428;6.682;2024-01-06T04:22:39;11.07;;;9.53;;
11797;SDS011;5956;51.428;6.682;2024-01-06T04:25:06;13.17;;;10.70;;
11797;SDS011;5956;51.428;6.682;2024-01-06T04:27:32;11.80;;;9.83;;
11797;SDS011;5956;51.428;6.682;2024-01-06T04:30:00;11.00;;;9.87;;
11797;SDS011;5956;51.428;6.682;2024-01-06T04:32:27;11.90;;;9.17;;
11797;SDS011;5956;51.428;6.682;2024-01-06T04:34:53;11.27;;;9.53;;
11797;SDS011;5956;51.428;6.682;2024-01-06T04:37:22;11.53;;;9.47;;
11797;SDS011;5956;51.428;6.682;2024-01-06T04:39:50;10.87;;;9.77;;
11797;SDS011;5956;51.428;6.682;2024-01-06T04:42:17;11.63;;;9.23;;
11797;SDS011;5956;51.428;6.682;2024-01-06T04:44:44;11.23;;;10.03;;
11797;SDS011;5956;51.428;6.682;2024-01-06T04:47:11;11.33;;;10.13;;
11797;SDS011;5956;51.428;6.682;2024-01-06T04:49:37;10.77;;;9.47;;
11797;SDS011;5956;51.428;6.682;2024-01-06T04:52:04;10.47;;;9.37;;
11797;SDS011;5956;51.428;6.682;2024-01-06T04:54:30;10.70;;;9.37;;
11797;SDS011;5956;51.428;6.682;2024-01-06T04:56:59;11.20;;;9.60;;
11797;SDS011;5956;51.428;6.682;2024-01-06T04:59:25;12.30;;;10.20;;
11797;SDS011;5956;51.428;6.682;2024-01-06T05:01:52;11.23;;;9.70;;
11797;SDS011;5956;51.428;6.682;2024-01-06T05:04:19;11.07;;;9.30;;
11797;SDS011;5956;51.428;6.682;2024-01-06T05:06:45;10.37;;;9.27;;
11797;SDS011;5956;51.428;6.682;2024-01-06T05:09:11;10.83;;;9.73;;
11797;SDS011;5956;51.428;6.682;2024-01-06T05:11:38;10.80;;;9.70;;
11797;SDS011;5956;51.428;6.682;2024-01-06T05:14:06;11.20;;;10.00;;
11797;SDS011;5956;51.428;6.682;2024-01-06T05:16:32;10.50;;;9.40;;
11797;SDS011;5956;51.428;6.682;2024-01-06T05:18:59;11.30;;;10.00;;
11797;SDS011;5956;51.428;6.682;2024-01-06T05:21:29;11.03;;;9.73;;
11797;SDS011;5956;51.428;6.682;2024-01-06T05:23:56;11.03;;;9.90;;
11797;SDS011;5956;51.428;6.682;2024-01-06T05:26:22;12.27;;;10.77;;
11797;SDS011;5956;51.428;6.682;2024-01-06T05:28:49;11.97;;;10.43;;
11797;SDS011;5956;51.428;6.682;2024-01-06T05:31:17;11.00;;;9.60;;
11797;SDS011;5956;51.428;6.682;2024-01-06T05:33:43;12.80;;;10.30;;
11797;SDS011;5956;51.428;6.682;2024-01-06T05:36:10;11.90;;;10.57;;
11797;SDS011;5956;51.428;6.682;2024-01-06T05:38:36;13.00;;;11.30;;
11797;SDS011;5956;51.428;6.682;2024-01-06T05:41:03;12.40;;;11.10;;
11797;SDS011;5956;51.428;6.682;2024-01-06T05:43:29;15.57;;;13.33;;
11797;SDS011;5956;51.428;6.682;2024-01-06T05:45:56;13.70;;;11.60;;
11797;SDS011;5956;51.428;6.682;2024-01-06T05:48:24;14.13;;;11.87;;
11797;SDS011;5956;51.428;6.682;2024-01-06T05:50:50;13.60;;;11.63;;
11797;SDS011;5956;51.428;6.682;2024-01-06T05:53:17;13.57;;;11.80;;
11797;SDS011;5956;51.428;6.682;2024-01-06T05:55:43;13.07;;;11.37;;
11797;SDS011;5956;51.428;6.682;2024-01-06T05:58:10;13.90;;;11.37;;
11797;SDS011;5956;51.428;6.682;2024-01-06T06:00:36;14.10;;;11.10;;
11797;SDS011;5956;51.428;6.682;2024-01-06T06:03:04;12.83;;;11.53;;
11797;SDS011;5956;51.428;6.682;2024-01-06T06:05:32;11.93;;;10.40;;
11797;SDS011;5956;51.428;6.682;2024-01-06T06:07:58;13.17;;;11.00;;
11797;SDS011;5956;51.428;6.682;2024-01-06T06:10:24;22.70;;;16.83;;
11797;SDS011;5956;51.428;6.682;2024-01-06T06:12:55;13.10;;;11.70;;
11797;SDS011;5956;51.428;6.682;2024-01-06T06:15:21;12.97;;;10.53;;
11797;SDS011;5956;51.428;6.682;2024-01-06T06:17:48;11.77;;;10.13;;
11797;SDS011;5956;51.428;6.682;2024-01-06T06:20:14;11.17;;;9.97;;
11797;SDS011;5956;51.428;6.682;2024-01-06T06:22:42;10.87;;;9.13;;
11797;SDS011;5956;51.428;6.682;2024-01-06T06:25:08;10.47;;;9.37;;
11797;SDS011;5956;51.428;6.682;2024-01-06T06:27:35;10.20;;;9.20;;
11797;SDS011;5956;51.428;6.682;2024-01-06T06:30:03;12.17;;;10.53;;
11797;SDS011;5956;51.428;6.682;2024-01-06T06:32:29;12.40;;;11.00;;
11797;SDS011;5956;51.428;6.682;2024-01-06T06:34:56;13.23;;;11.93;;
11797;SDS011;5956;51.428;6.682;2024-01-06T06:37:22;13.60;;;11.37;;
11797;SDS011;5956;51.428;6.682;2024-01-06T06:39:50;13.80;;;11.27;;
11797;SDS011;5956;51.428;6.682;2024-01-06T06:42:16;11.90;;;10.33;;
11797;SDS011;5956;51.428;6.682;2024-01-06T06:44:43;12.27;;;10.67;;
11797;SDS011;5956;51.428;6.682;2024-01-06T06:47:09;12.23;;;10.93;;
11797;SDS011;5956;51.428;6.682;2024-01-06T06:49:36;12.37;;;11.07;;
11797;SDS011;5956;51.428;6.682;2024-01-06T06:52:02;11.90;;;10.40;;
11797;SDS011;5956;51.428;6.682;2024-01-06T06:54:32;11.70;;;10.50;;
11797;SDS011;5956;51.428;6.682;2024-01-06T06:57:00;16.33;;;13.87;;
11797;SDS011;5956;51.428;6.682;2024-01-06T06:59:26;24.50;;;18.83;;
11797;SDS011;5956;51.428;6.682;2024-01-06T07:01:53;14.77;;;12.20;;
11797;SDS011;5956;51.428;6.682;2024-01-06T07:04:19;12.40;;;11.07;;
11797;SDS011;5956;51.428;6.682;2024-01-06T07:06:46;13.13;;;11.17;;
11797;SDS011;5956;51.428;6.682;2024-01-06T07:09:12;13.13;;;10.97;;
11797;SDS011;5956;51.428;6.682;2024-01-06T07:11:39;12.53;;;11.13;;
11797;SDS011;5956;51.428;6.682;2024-01-06T07:14:07;13.80;;;10.80;;
11797;SDS011;5956;51.428;6.682;2024-01-06T07:16:33;13.27;;;10.93;;
11797;SDS011;5956;51.428;6.682;2024-01-06T07:19:00;13.23;;;10.97;;
11797;SDS011;5956;51.428;6.682;2024-01-06T07:21:26;14.67;;;11.90;;
11797;SDS011;5956;51.428;6.682;2024-01-06T07:23:52;15.07;;;11.27;;
11797;SDS011;5956;51.428;6.682;2024-01-06T07:26:19;14.43;;;11.43;;
11797;SDS011;5956;51.428;6.682;2024-01-06T07:28:45;15.47;;;12.83;;
11797;SDS011;5956;51.428;6.682;2024-01-06T07:31:13;16.87;;;13.70;;
11797;SDS011;5956;51.428;6.682;2024-01-06T07:33:40;16.40;;;13.10;;
11797;SDS011;5956;51.428;6.682;2024-01-06T07:36:06;18.20;;;13.70;;
11797;SDS011;5956;51.428;6.682;2024-01-06T07:38:33;20.33;;;14.33;;
11797;SDS011;5956;51.428;6.682;2024-01-06T07:40:59;18.17;;;14.20;;
11797;SDS011;5956;51.428;6.682;2024-01-06T07:43:26;16.37;;;12.87;;
11797;SDS011;5956;51.428;6.682;2024-01-06T07:45:53;18.67;;;14.57;;
11797;SDS011;5956;51.428;6.682;2024-01-06T07:48:21;17.20;;;13.27;;
11797;SDS011;5956;51.428;6.682;2024-01-06T07:50:47;18.37;;;14.30;;
11797;SDS011;5956;51.428;6.682;2024-01-06T07:53:13;17.07;;;13.07;;
11797;SDS011;5956;51.428;6.682;2024-01-06T07:55:40;19.50;;;14.30;;
11797;SDS011;5956;51.428;6.682;2024-01-06T07:58:06;18.70;;;14.93;;
11797;SDS011;5956;51.428;6.682;2024-01-06T08:00:33;18.27;;;14.70;;
11797;SDS011;5956;51.428;6.682;2024-01-06T08:02:59;17.73;;;14.87;;
11797;SDS011;5956;51.428;6.682;2024-01-06T08:05:28;17.03;;;12.97;;
11797;SDS011;5956;51.428;6.682;2024-01-06T08:07:54;19.80;;;15.20;;
11797;SDS011;5956;51.428;6.682;2024-01-06T08:10:21;21.40;;;14.70;;
11797;SDS011;5956;51.428;6.682;2024-01-06T08:12:47;19.60;;;15.07;;
11797;SDS011;5956;51.428;6.682;2024-01-06T08:15:14;21.50;;;16.13;;
11797;SDS011;5956;51.428;6.682;2024-01-06T08:17:41;20.03;;;15.57;;
11797;SDS011;5956;51.428;6.682;2024-01-06T08:20:08;21.70;;;16.57;;
11797;SDS011;5956;51.428;6.682;2024-01-06T08:22:36;23.50;;;16.70;;
11797;SDS011;5956;51.428;6.682;2024-01-06T08:25:02;24.10;;;17.20;;
11797;SDS011;5956;51.428;6.682;2024-01-06T08:27:31;25.83;;;19.00;;
11797;SDS011;5956;51.428;6.682;2024-01-06T08:29:57;23.93;;;18.30;;
11797;SDS011;5956;51.428;6.682;2024-01-06T08:32:24;25.27;;;18.40;;
11797;SDS011;5956;51.428;6.682;2024-01-06T08:34:50;26.33;;;19.73;;
11797;SDS011;5956;51.428;6.682;2024-01-06T08:37:17;25.00;;;19.23;;
11797;SDS011;5956;51.428;6.682;2024-01-06T08:39:45;25.83;;;19.07;;
11797;SDS011;5956;51.428;6.682;2024-01-06T08:42:11;26.10;;;18.43;;
11797;SDS011;5956;51.428;6.682;2024-01-06T08:44:38;5.57;;;4.23;;
11797;SDS011;5956;51.428;6.682;2024-01-06T08:47:04;25.87;;;17.97;;
11797;SDS011;5956;51.428;6.682;2024-01-06T08:49:31;37.30;;;26.33;;
11797;SDS011;5956;51.428;6.682;2024-01-06T08:51:58;23.63;;;18.20;;
11797;SDS011;5956;51.428;6.682;2024-01-06T08:54:24;20.30;;;15.33;;
11797;SDS011;5956;51.428;6.682;2024-01-06T08:56:52;22.77;;;17.20;;
11797;SDS011;5956;51.428;6.682;2024-01-06T08:59:19;24.73;;;17.47;;
11797;SDS011;5956;51.428;6.682;2024-01-06T09:01:46;25.03;;;18.20;;
11797;SDS011;5956;51.428;6.682;2024-01-06T09:04:12;28.30;;;21.07;;
11797;SDS011;5956;51.428;6.682;2024-01-06T09:06:39;26.83;;;19.50;;
11797;SDS011;5956;51.428;6.682;2024-01-06T09:09:06;24.37;;;19.13;;
11797;SDS011;5956;51.428;6.682;2024-01-06T09:11:33;26.70;;;19.43;;
11797;SDS011;5956;51.428;6.682;2024-01-06T09:14:02;26.00;;;19.40;;
11797;SDS011;5956;51.428;6.682;2024-01-06T09:16:28;27.63;;;20.27;;
11797;SDS011;5956;51.428;6.682;2024-01-06T09:18:55;30.53;;;22.63;;
11797;SDS011;5956;51.428;6.682;2024-01-06T09:21:21;30.37;;;20.63;;
11797;SDS011;5956;51.428;6.682;2024-01-06T09:23:47;30.00;;;21.30;;
11797;SDS011;5956;51.428;6.682;2024-01-06T09:26:14;23.90;;;18.67;;
11797;SDS011;5956;51.428;6.682;2024-01-06T09:28:41;25.10;;;19.23;;
11797;SDS011;5956;51.428;6.682;2024-01-06T09:31:09;25.43;;;17.80;;
11797;SDS011;5956;51.428;6.682;2024-01-06T09:33:35;25.90;;;18.40;;
11797;SDS011;5956;51.428;6.682;2024-01-06T09:36:02;25.33;;;18.23;;
11797;SDS011;5956;51.428;6.682;2024-01-06T09:38:28;32.63;;;18.53;;
11797;SDS011;5956;51.428;6.682;2024-01-06T09:40:55;25.63;;;18.30;;
11797;SDS011;5956;51.428;6.682;2024-01-06T09:43:22;25.00;;;17.33;;
11797;SDS011;5956;51.428;6.682;2024-01-06T09:45:52;27.07;;;19.40;;
11797;SDS011;5956;51.428;6.682;2024-01-06T09:48:24;29.47;;;20.10;;
11797;SDS011;5956;51.428;6.682;2024-01-06T09:50:54;23.97;;;17.60;;
11797;SDS011;5956;51.428;6.682;2024-01-06T09:53:22;22.37;;;18.17;;
11797;SDS011;5956;51.428;6.682;2024-01-06T09:55:49;21.13;;;15.87;;
11797;SDS011;5956;51.428;6.682;2024-01-06T09:58:17;23.43;;;17.13;;
11797;SDS011;5956;51.428;6.682;2024-01-06T10:00:44;23.93;;;17.27;;
11797;SDS011;5956;51.428;6.682;2024-01-06T10:03:10;25.60;;;18.43;;
11797;SDS011;5956;51.428;6.682;2024-01-06T10:05:39;24.00;;;17.33;;
11797;SDS011;5956;51.428;6.682;2024-01-06T10:08:06;22.67;;;17.50;;
11797;SDS011;5956;51.428;6.682;2024-01-06T10:10:33;24.57;;;17.80;;
11797;SDS011;5956;51.428;6.682;2024-01-06T10:13:00;27.00;;;18.30;;
11797;SDS011;5956;51.428;6.682;2024-01-06T10:15:26;24.07;;;17.20;;
11797;SDS011;5956;51.428;6.682;2024-01-06T10:17:53;22.93;;;16.73;;
11797;SDS011;5956;51.428;6.682;2024-01-06T10:20:20;23.47;;;16.67;;
11797;SDS011;5956;51.428;6.682;2024-01-06T10:22:48;21.60;;;15.97;;
11797;SDS011;5956;51.428;6.682;2024-01-06T10:25:15;17.73;;;14.43;;
11797;SDS011;5956;51.428;6.682;2024-01-06T10:27:41;21.80;;;15.73;;
11797;SDS011;5956;51.428;6.682;2024-01-06T10:30:08;22.93;;;15.93;;
11797;SDS011;5956;51.428;6.682;2024-01-06T10:32:35;20.60;;;15.93;;
11797;SDS011;5956;51.428;6.682;2024-01-06T10:35:02;23.93;;;15.47;;
11797;SDS011;5956;51.428;6.682;2024-01-06T10:37:30;19.17;;;14.60;;
11797;SDS011;5956;51.428;6.682;2024-01-06T10:40:08;21.60;;;15.10;;
11797;SDS011;5956;51.428;6.682;2024-01-06T10:42:35;18.67;;;14.73;;
11797;SDS011;5956;51.428;6.682;2024-01-06T10:45:02;18.07;;;13.80;;
11797;SDS011;5956;51.428;6.682;2024-01-06T10:47:29;22.83;;;15.47;;
11797;SDS011;5956;51.428;6.682;2024-01-06T10:49:59;22.50;;;16.13;;
11797;SDS011;5956;51.428;6.682;2024-01-06T10:52:26;22.87;;;15.57;;
11797;SDS011;5956;51.428;6.682;2024-01-06T10:54:53;24.60;;;17.60;;
11797;SDS011;5956;51.428;6.682;2024-01-06T10:57:21;24.97;;;16.93;;
11797;SDS011;5956;51.428;6.682;2024-01-06T10:59:49;24.87;;;16.17;;
11797;SDS011;5956;51.428;6.682;2024-01-06T11:02:15;20.73;;;15.77;;
11797;SDS011;5956;51.428;6.682;2024-01-06T11:04:42;22.90;;;16.23;;
11797;SDS011;5956;51.428;6.682;2024-01-06T11:07:09;22.20;;;16.90;;
11797;SDS011;5956;51.428;6.682;2024-01-06T11:09:35;23.73;;;17.23;;
11797;SDS011;5956;51.428;6.682;2024-01-06T11:12:03;21.47;;;16.37;;
11797;SDS011;5956;51.428;6.682;2024-01-06T11:14:36;26.20;;;18.90;;
11797;SDS011;5956;51.428;6.682;2024-01-06T11:17:03;23.97;;;16.87;;
11797;SDS011;5956;51.428;6.682;2024-01-06T11:19:42;25.77;;;18.63;;
11797;SDS011;5956;51.428;6.682;2024-01-06T11:22:19;23.83;;;17.70;;
11797;SDS011;5956;51.428;6.682;2024-01-06T11:24:46;28.23;;;19.73;;
11797;SDS011;5956;51.428;6.682;2024-01-06T11:27:16;25.60;;;18.77;;
11797;SDS011;5956;51.428;6.682;2024-01-06T11:29:44;33.43;;;21.63;;
11797;SDS011;5956;51.428;6.682;2024-01-06T11:32:17;31.17;;;21.27;;
11797;SDS011;5956;51.428;6.682;2024-01-06T11:34:48;28.40;;;21.43;;
11797;SDS011;5956;51.428;6.682;2024-01-06T11:37:17;30.27;;;21.07;;
11797;SDS011;5956;51.428;6.682;2024-01-06T11:39:43;30.67;;;20.90;;
11797;SDS011;5956;51.428;6.682;2024-01-06T11:42:10;31.60;;;22.43;;
11797;SDS011;5956;51.428;6.682;2024-01-06T11:44:37;30.77;;;21.33;;
11797;SDS011;5956;51.428;6.682;2024-01-06T11:47:06;28.37;;;20.40;;
11797;SDS011;5956;51.428;6.682;2024-01-06T11:49:32;28.53;;;19.93;;
11797;SDS011;5956;51.428;6.682;2024-01-06T11:51:59;29.73;;;20.80;;
11797;SDS011;5956;51.428;6.682;2024-01-06T11:54:26;49.93;;;34.00;;
11797;SDS011;5956;51.428;6.682;2024-01-06T11:56:52;30.60;;;21.77;;
11797;SDS011;5956;51.428;6.682;2024-01-06T11:59:21;33.80;;;20.77;;
11797;SDS011;5956;51.428;6.682;2024-01-06T12:01:47;30.23;;;20.23;;
11797;SDS011;5956;51.428;6.682;2024-01-06T12:04:15;32.87;;;22.00;;
11797;SDS011;5956;51.428;6.682;2024-01-06T12:06:41;30.40;;;21.17;;
11797;SDS011;5956;51.428;6.682;2024-01-06T12:09:08;31.40;;;21.47;;
11797;SDS011;5956;51.428;6.682;2024-01-06T12:11:35;25.63;;;18.30;;
11797;SDS011;5956;51.428;6.682;2024-01-06T12:14:02;28.57;;;18.53;;
11797;SDS011;5956;51.428;6.682;2024-01-06T12:16:29;23.57;;;16.43;;
11797;SDS011;5956;51.428;6.682;2024-01-06T12:18:57;30.80;;;19.40;;
11797;SDS011;5956;51.428;6.682;2024-01-06T12:21:27;25.17;;;18.73;;
11797;SDS011;5956;51.428;6.682;2024-01-06T12:23:54;42.40;;;29.47;;
11797;SDS011;5956;51.428;6.682;2024-01-06T12:26:21;28.97;;;20.77;;
11797;SDS011;5956;51.428;6.682;2024-01-06T12:28:48;29.17;;;20.30;;
11797;SDS011;5956;51.428;6.682;2024-01-06T12:31:15;28.53;;;19.53;;
11797;SDS011;5956;51.428;6.682;2024-01-06T12:33:41;29.33;;;21.33;;
11797;SDS011;5956;51.428;6.682;2024-01-06T12:36:08;24.40;;;18.10;;
11797;SDS011;5956;51.428;6.682;2024-01-06T12:38:37;25.80;;;18.83;;
11797;SDS011;5956;51.428;6.682;2024-01-06T12:41:04;21.53;;;16.07;;
11797;SDS011;5956;51.428;6.682;2024-01-06T12:43:31;20.23;;;14.73;;
11797;SDS011;5956;51.428;6.682;2024-01-06T12:45:58;22.07;;;16.23;;
11797;SDS011;5956;51.428;6.682;2024-01-06T12:48:24;21.40;;;16.57;;
11797;SDS011;5956;51.428;6.682;2024-01-06T12:50:50;20.10;;;15.63;;
11797;SDS011;5956;51.428;6.682;2024-01-06T12:53:17;19.43;;;14.87;;
11797;SDS011;5956;51.428;6.682;2024-01-06T12:55:45;19.23;;;13.87;;
11797;SDS011;5956;51.428;6.682;2024-01-06T12:58:12;18.43;;;13.10;;
11797;SDS011;5956;51.428;6.682;2024-01-06T13:00:39;16.80;;;13.10;;
11797;SDS011;5956;51.428;6.682;2024-01-06T13:03:06;20.73;;;14.70;;
11797;SDS011;5956;51.428;6.682;2024-01-06T13:05:34;22.50;;;15.67;;
11797;SDS011;5956;51.428;6.682;2024-01-06T13:08:01;19.27;;;14.07;;
11797;SDS011;5956;51.428;6.682;2024-01-06T13:10:28;20.63;;;14.77;;
11797;SDS011;5956;51.428;6.682;2024-01-06T13:12:56;18.67;;;13.30;;
11797;SDS011;5956;51.428;6.682;2024-01-06T13:15:23;15.40;;;11.43;;
11797;SDS011;5956;51.428;6.682;2024-01-06T13:17:49;14.20;;;11.30;;
11797;SDS011;5956;51.428;6.682;2024-01-06T13:20:16;14.40;;;11.07;;
11797;SDS011;5956;51.428;6.682;2024-01-06T13:22:43;15.57;;;11.73;;
11797;SDS011;5956;51.428;6.682;2024-01-06T13:25:09;15.10;;;11.73;;
11797;SDS011;5956;51.428;6.682;2024-01-06T13:27:37;15.57;;;11.30;;
11797;SDS011;5956;51.428;6.682;2024-01-06T13:30:06;16.03;;;11.80;;
11797;SDS011;5956;51.428;6.682;2024-01-06T13:32:32;17.17;;;12.57;;
11797;SDS011;5956;51.428;6.682;2024-01-06T13:34:59;15.57;;;10.30;;
11797;SDS011;5956;51.428;6.682;2024-01-06T13:37:29;15.47;;;11.77;;
11797;SDS011;5956;51.428;6.682;2024-01-06T13:39:56;12.80;;;11.07;;
11797;SDS011;5956;51.428;6.682;2024-01-06T13:42:22;15.47;;;12.10;;
11797;SDS011;5956;51.428;6.682;2024-01-06T13:44:49;27.60;;;20.30;;
11797;SDS011;5956;51.428;6.682;2024-01-06T13:47:17;26.00;;;18.50;;
11797;SDS011;5956;51.428;6.682;2024-01-06T13:49:44;17.77;;;14.07;;
11797;SDS011;5956;51.428;6.682;2024-01-06T13:52:11;16.10;;;13.13;;
11797;SDS011;5956;51.428;6.682;2024-01-06T13:54:37;15.77;;;13.40;;
11797;SDS011;5956;51.428;6.682;2024-01-06T13:57:04;18.87;;;13.57;;
11797;SDS011;5956;51.428;6.682;2024-01-06T13:59:30;32.80;;;23.67;;
11797;SDS011;5956;51.428;6.682;2024-01-06T14:01:57;19.27;;;15.60;;
11797;SDS011;5956;51.428;6.682;2024-01-06T14:04:24;17.03;;;14.67;;
11797;SDS011;5956;51.428;6.682;2024-01-06T14:06:51;17.63;;;15.50;;
11797;SDS011;5956;51.428;6.682;2024-01-06T14:09:21;18.13;;;15.27;;
11797;SDS011;5956;51.428;6.682;2024-01-06T14:11:47;17.17;;;14.70;;
11797;SDS011;5956;51.428;6.682;2024-01-06T14:14:14;20.77;;;16.87;;
11797;SDS011;5956;51.428;6.682;2024-01-06T14:16:40;20.40;;;16.40;;
11797;SDS011;5956;51.428;6.682;2024-01-06T14:19:08;25.40;;;17.93;;
11797;SDS011;5956;51.428;6.682;2024-01-06T14:21:35;21.33;;;17.63;;
11797;SDS011;5956;51.428;6.682;2024-01-06T14:24:02;21.50;;;16.43;;
11797;SDS011;5956;51.428;6.682;2024-01-06T14:26:29;22.83;;;17.63;;
11797;SDS011;5956;51.428;6.682;2024-01-06T14:28:56;19.37;;;15.70;;
11797;SDS011;5956;51.428;6.682;2024-01-06T14:31:25;21.90;;;17.03;;
11797;SDS011;5956;51.428;6.682;2024-01-06T14:33:52;21.93;;;16.87;;